sensor_id;sensor_type;location;lat;lon;timestamp;pressure;altitude;pressure_sealevel;temperature
71463;BMP180;59266;52.608;13.260;2023-06-22T00:00:14;101536.00;;;18.90
71463;BMP180;59266;52.608;13.260;2023-06-22T00:02:41;101531.00;;;18.80
71463;BMP180;59266;52.608;13.260;2023-06-22T00:05:08;101524.00;;;18.70
71463;BMP180;59266;52.608;13.260;2023-06-22T00:07:35;101535.00;;;18.60
71463;BMP180;59266;52.608;13.260;2023-06-22T00:10:02;101532.00;;;18.60
71463;BMP180;59266;52.608;13.260;2023-06-22T00:12:30;101538.00;;;18.60
71463;BMP180;59266;52.608;13.260;2023-06-22T00:14:57;101537.00;;;18.50
71463;BMP180;59266;52.608;13.260;2023-06-22T00:17:23;101543.00;;;18.60
71463;BMP180;59266;52.608;13.260;2023-06-22T00:19:50;101546.00;;;18.60
71463;BMP180;59266;52.608;13.260;2023-06-22T00:22:20;101554.00;;;18.60
71463;BMP180;59266;52.608;13.260;2023-06-22T00:24:56;101553.00;;;18.60
71463;BMP180;59266;52.608;13.260;2023-06-22T00:27:25;101543.00;;;18.50
71463;BMP180;59266;52.608;13.260;2023-06-22T00:29:55;101555.00;;;18.50
71463;BMP180;59266;52.608;13.260;2023-06-22T00:32:23;101556.00;;;18.40
71463;BMP180;59266;52.608;13.260;2023-06-22T00:34:51;101550.00;;;18.40
71463;BMP180;59266;52.608;13.260;2023-06-22T00:37:18;101553.00;;;18.40
71463;BMP180;59266;52.608;13.260;2023-06-22T00:39:45;101550.00;;;18.50
71463;BMP180;59266;52.608;13.260;2023-06-22T00:42:12;101555.00;;;18.50
71463;BMP180;59266;52.608;13.260;2023-06-22T00:44:38;101553.00;;;18.50
71463;BMP180;59266;52.608;13.260;2023-06-22T00:47:07;101551.00;;;18.50
71463;BMP180;59266;52.608;13.260;2023-06-22T00:49:34;101561.00;;;18.40
71463;BMP180;59266;52.608;13.260;2023-06-22T00:52:03;101552.00;;;18.40
71463;BMP180;59266;52.608;13.260;2023-06-22T00:54:30;101555.00;;;18.40
71463;BMP180;59266;52.608;13.260;2023-06-22T00:56:58;101556.00;;;18.30
71463;BMP180;59266;52.608;13.260;2023-06-22T00:59:26;101558.00;;;18.30
71463;BMP180;59266;52.608;13.260;2023-06-22T01:01:55;101549.00;;;18.30
71463;BMP180;59266;52.608;13.260;2023-06-22T01:04:24;101552.00;;;18.30
71463;BMP180;59266;52.608;13.260;2023-06-22T01:10:09;101560.00;;;18.10
71463;BMP180;59266;52.608;13.260;2023-06-22T01:12:49;101560.00;;;18.10
71463;BMP180;59266;52.608;13.260;2023-06-22T01:15:30;101566.00;;;18.00
71463;BMP180;59266;52.608;13.260;2023-06-22T01:18:00;101568.00;;;18.10
71463;BMP180;59266;52.608;13.260;2023-06-22T01:20:31;101567.00;;;18.10
71463;BMP180;59266;52.608;13.260;2023-06-22T01:23:05;101562.00;;;18.10
71463;BMP180;59266;52.608;13.260;2023-06-22T01:25:45;101565.00;;;18.00
71463;BMP180;59266;52.608;13.260;2023-06-22T01:28:24;101567.00;;;18.00
71463;BMP180;59266;52.608;13.260;2023-06-22T01:30:53;101554.00;;;18.00
71463;BMP180;59266;52.608;13.260;2023-06-22T01:33:33;101551.00;;;17.90
71463;BMP180;59266;52.608;13.260;2023-06-22T01:36:02;101562.00;;;17.90
71463;BMP180;59266;52.608;13.260;2023-06-22T01:38:30;101569.00;;;17.90
71463;BMP180;59266;52.608;13.260;2023-06-22T01:40:57;101562.00;;;17.80
71463;BMP180;59266;52.608;13.260;2023-06-22T01:43:26;101562.00;;;17.70
71463;BMP180;59266;52.608;13.260;2023-06-22T01:45:55;101568.00;;;17.80
71463;BMP180;59266;52.608;13.260;2023-06-22T01:48:23;101573.00;;;17.80
71463;BMP180;59266;52.608;13.260;2023-06-22T01:50:49;101565.00;;;17.70
71463;BMP180;59266;52.608;13.260;2023-06-22T01:53:17;101577.00;;;17.70
71463;BMP180;59266;52.608;13.260;2023-06-22T01:55:45;101571.00;;;17.70
71463;BMP180;59266;52.608;13.260;2023-06-22T01:58:13;101574.00;;;17.70
71463;BMP180;59266;52.608;13.260;2023-06-22T02:00:44;101587.00;;;17.60
71463;BMP180;59266;52.608;13.260;2023-06-22T02:03:18;101580.00;;;17.60
71463;BMP180;59266;52.608;13.260;2023-06-22T02:06:07;101577.00;;;17.50
71463;BMP180;59266;52.608;13.260;2023-06-22T02:08:41;101579.00;;;17.60
71463;BMP180;59266;52.608;13.260;2023-06-22T02:11:09;101581.00;;;17.70
71463;BMP180;59266;52.608;13.260;2023-06-22T02:13:45;101581.00;;;17.70
71463;BMP180;59266;52.608;13.260;2023-06-22T02:16:13;101589.00;;;17.70
71463;BMP180;59266;52.608;13.260;2023-06-22T02:18:48;101582.00;;;17.60
71463;BMP180;59266;52.608;13.260;2023-06-22T02:21:18;101582.00;;;17.70
71463;BMP180;59266;52.608;13.260;2023-06-22T02:23:45;101585.00;;;17.70
71463;BMP180;59266;52.608;13.260;2023-06-22T02:26:17;101587.00;;;17.60
71463;BMP180;59266;52.608;13.260;2023-06-22T02:28:45;101598.00;;;17.70
71463;BMP180;59266;52.608;13.260;2023-06-22T02:31:12;101600.00;;;17.70
71463;BMP180;59266;52.608;13.260;2023-06-22T02:33:39;101598.00;;;17.70
71463;BMP180;59266;52.608;13.260;2023-06-22T02:36:06;101594.00;;;17.70
71463;BMP180;59266;52.608;13.260;2023-06-22T02:38:35;101598.00;;;17.70
71463;BMP180;59266;52.608;13.260;2023-06-22T02:41:04;101596.00;;;17.80
71463;BMP180;59266;52.608;13.260;2023-06-22T02:43:40;101588.00;;;17.80
71463;BMP180;59266;52.608;13.260;2023-06-22T02:46:09;101600.00;;;17.80
71463;BMP180;59266;52.608;13.260;2023-06-22T02:48:36;101596.00;;;17.90
71463;BMP180;59266;52.608;13.260;2023-06-22T02:51:02;101600.00;;;17.90
71463;BMP180;59266;52.608;13.260;2023-06-22T02:53:31;101603.00;;;18.00
71463;BMP180;59266;52.608;13.260;2023-06-22T02:56:04;101599.00;;;18.00
71463;BMP180;59266;52.608;13.260;2023-06-22T02:58:33;101600.00;;;18.00
71463;BMP180;59266;52.608;13.260;2023-06-22T03:01:06;101601.00;;;18.00
71463;BMP180;59266;52.608;13.260;2023-06-22T03:03:32;101598.00;;;17.90
71463;BMP180;59266;52.608;13.260;2023-06-22T03:05:59;101605.00;;;18.00
71463;BMP180;59266;52.608;13.260;2023-06-22T03:08:30;101606.00;;;18.00
71463;BMP180;59266;52.608;13.260;2023-06-22T03:10:57;101601.00;;;18.10
71463;BMP180;59266;52.608;13.260;2023-06-22T03:13:24;101597.00;;;18.00
71463;BMP180;59266;52.608;13.260;2023-06-22T03:15:51;101598.00;;;18.00
71463;BMP180;59266;52.608;13.260;2023-06-22T03:18:19;101594.00;;;18.10
71463;BMP180;59266;52.608;13.260;2023-06-22T03:20:50;101598.00;;;18.00
71463;BMP180;59266;52.608;13.260;2023-06-22T03:23:17;101595.00;;;18.00
71463;BMP180;59266;52.608;13.260;2023-06-22T03:25:44;101593.00;;;18.00
71463;BMP180;59266;52.608;13.260;2023-06-22T03:28:11;101597.00;;;18.00
71463;BMP180;59266;52.608;13.260;2023-06-22T03:30:39;101594.00;;;18.10
71463;BMP180;59266;52.608;13.260;2023-06-22T03:33:08;101598.00;;;18.00
71463;BMP180;59266;52.608;13.260;2023-06-22T03:35:35;101604.00;;;18.00
71463;BMP180;59266;52.608;13.260;2023-06-22T03:38:04;101600.00;;;18.00
71463;BMP180;59266;52.608;13.260;2023-06-22T03:40:31;101597.00;;;18.00
71463;BMP180;59266;52.608;13.260;2023-06-22T03:42:58;101596.00;;;18.10
71463;BMP180;59266;52.608;13.260;2023-06-22T03:45:25;101587.00;;;18.20
71463;BMP180;59266;52.608;13.260;2023-06-22T03:47:54;101596.00;;;18.10
71463;BMP180;59266;52.608;13.260;2023-06-22T03:50:21;101595.00;;;18.20
71463;BMP180;59266;52.608;13.260;2023-06-22T03:52:48;101588.00;;;18.30
71463;BMP180;59266;52.608;13.260;2023-06-22T03:55:15;101588.00;;;18.20
71463;BMP180;59266;52.608;13.260;2023-06-22T03:57:42;101590.00;;;18.30
71463;BMP180;59266;52.608;13.260;2023-06-22T04:00:09;101592.00;;;18.40
71463;BMP180;59266;52.608;13.260;2023-06-22T04:02:36;101588.00;;;18.40
71463;BMP180;59266;52.608;13.260;2023-06-22T04:05:04;101593.00;;;18.50
71463;BMP180;59266;52.608;13.260;2023-06-22T04:07:30;101593.00;;;18.50
71463;BMP180;59266;52.608;13.260;2023-06-22T04:09:57;101596.00;;;18.70
71463;BMP180;59266;52.608;13.260;2023-06-22T04:12:24;101595.00;;;18.60
71463;BMP180;59266;52.608;13.260;2023-06-22T04:14:51;101588.00;;;18.70
71463;BMP180;59266;52.608;13.260;2023-06-22T04:17:20;101588.00;;;18.70
71463;BMP180;59266;52.608;13.260;2023-06-22T04:19:46;101594.00;;;18.80
71463;BMP180;59266;52.608;13.260;2023-06-22T04:22:15;101603.00;;;18.90
71463;BMP180;59266;52.608;13.260;2023-06-22T04:24:44;101599.00;;;19.00
71463;BMP180;59266;52.608;13.260;2023-06-22T04:27:11;101613.00;;;19.10
71463;BMP180;59266;52.608;13.260;2023-06-22T04:29:38;101606.00;;;19.20
71463;BMP180;59266;52.608;13.260;2023-06-22T04:32:16;101613.00;;;19.20
71463;BMP180;59266;52.608;13.260;2023-06-22T04:34:43;101609.00;;;19.40
71463;BMP180;59266;52.608;13.260;2023-06-22T04:37:10;101618.00;;;19.40
71463;BMP180;59266;52.608;13.260;2023-06-22T04:39:43;101624.00;;;19.30
71463;BMP180;59266;52.608;13.260;2023-06-22T04:42:12;101616.00;;;19.50
71463;BMP180;59266;52.608;13.260;2023-06-22T04:44:39;101616.00;;;19.30
71463;BMP180;59266;52.608;13.260;2023-06-22T04:47:08;101617.00;;;19.50
71463;BMP180;59266;52.608;13.260;2023-06-22T04:49:36;101620.00;;;19.70
71463;BMP180;59266;52.608;13.260;2023-06-22T04:52:07;101615.00;;;19.90
71463;BMP180;59266;52.608;13.260;2023-06-22T04:54:36;101624.00;;;20.20
71463;BMP180;59266;52.608;13.260;2023-06-22T04:57:07;101624.00;;;20.50
71463;BMP180;59266;52.608;13.260;2023-06-22T04:59:40;101616.00;;;20.60
71463;BMP180;59266;52.608;13.260;2023-06-22T05:02:09;101615.00;;;21.10
71463;BMP180;59266;52.608;13.260;2023-06-22T05:04:35;101617.00;;;21.30
71463;BMP180;59266;52.608;13.260;2023-06-22T05:07:06;101613.00;;;21.30
71463;BMP180;59266;52.608;13.260;2023-06-22T05:09:34;101608.00;;;21.60
71463;BMP180;59266;52.608;13.260;2023-06-22T05:12:02;101618.00;;;21.90
71463;BMP180;59266;52.608;13.260;2023-06-22T05:14:36;101615.00;;;22.10
71463;BMP180;59266;52.608;13.260;2023-06-22T05:17:03;101617.00;;;22.10
71463;BMP180;59266;52.608;13.260;2023-06-22T05:19:32;101622.00;;;21.90
71463;BMP180;59266;52.608;13.260;2023-06-22T05:22:01;101628.00;;;22.20
71463;BMP180;59266;52.608;13.260;2023-06-22T05:24:32;101626.00;;;22.00
71463;BMP180;59266;52.608;13.260;2023-06-22T05:26:58;101631.00;;;21.90
71463;BMP180;59266;52.608;13.260;2023-06-22T05:29:25;101634.00;;;22.20
71463;BMP180;59266;52.608;13.260;2023-06-22T05:31:56;101631.00;;;22.20
71463;BMP180;59266;52.608;13.260;2023-06-22T05:34:22;101624.00;;;22.00
71463;BMP180;59266;52.608;13.260;2023-06-22T05:36:49;101612.00;;;22.20
71463;BMP180;59266;52.608;13.260;2023-06-22T05:39:16;101619.00;;;22.60
71463;BMP180;59266;52.608;13.260;2023-06-22T05:41:46;101624.00;;;22.70
71463;BMP180;59266;52.608;13.260;2023-06-22T05:44:15;101617.00;;;22.70
71463;BMP180;59266;52.608;13.260;2023-06-22T05:46:43;101619.00;;;22.90
71463;BMP180;59266;52.608;13.260;2023-06-22T05:49:15;101627.00;;;23.10
71463;BMP180;59266;52.608;13.260;2023-06-22T05:51:43;101637.00;;;23.30
71463;BMP180;59266;52.608;13.260;2023-06-22T05:54:10;101630.00;;;23.60
71463;BMP180;59266;52.608;13.260;2023-06-22T05:56:42;101618.00;;;24.00
71463;BMP180;59266;52.608;13.260;2023-06-22T05:59:10;101626.00;;;25.30
71463;BMP180;59266;52.608;13.260;2023-06-22T06:01:37;101634.00;;;27.50
71463;BMP180;59266;52.608;13.260;2023-06-22T06:04:04;101626.00;;;27.50
71463;BMP180;59266;52.608;13.260;2023-06-22T06:06:34;101637.00;;;29.40
71463;BMP180;59266;52.608;13.260;2023-06-22T06:09:01;101640.00;;;29.00
71463;BMP180;59266;52.608;13.260;2023-06-22T06:11:30;101642.00;;;29.70
71463;BMP180;59266;52.608;13.260;2023-06-22T06:13:57;101645.00;;;30.30
71463;BMP180;59266;52.608;13.260;2023-06-22T06:16:26;101636.00;;;30.80
71463;BMP180;59266;52.608;13.260;2023-06-22T06:18:54;101632.00;;;30.10
71463;BMP180;59266;52.608;13.260;2023-06-22T06:21:22;101634.00;;;29.60
71463;BMP180;59266;52.608;13.260;2023-06-22T06:23:49;101631.00;;;31.20
71463;BMP180;59266;52.608;13.260;2023-06-22T06:26:21;101618.00;;;31.60
71463;BMP180;59266;52.608;13.260;2023-06-22T06:29:04;101628.00;;;30.90
71463;BMP180;59266;52.608;13.260;2023-06-22T06:31:31;101638.00;;;31.40
71463;BMP180;59266;52.608;13.260;2023-06-22T06:34:01;101637.00;;;32.50
71463;BMP180;59266;52.608;13.260;2023-06-22T06:36:52;101645.00;;;33.20
71463;BMP180;59266;52.608;13.260;2023-06-22T06:39:22;101649.00;;;32.80
71463;BMP180;59266;52.608;13.260;2023-06-22T06:41:51;101648.00;;;34.40
71463;BMP180;59266;52.608;13.260;2023-06-22T06:44:23;101651.00;;;35.10
71463;BMP180;59266;52.608;13.260;2023-06-22T06:46:53;101652.00;;;36.10
71463;BMP180;59266;52.608;13.260;2023-06-22T06:49:31;101648.00;;;37.00
71463;BMP180;59266;52.608;13.260;2023-06-22T06:51:57;101655.00;;;36.50
71463;BMP180;59266;52.608;13.260;2023-06-22T06:54:24;101660.00;;;36.60
71463;BMP180;59266;52.608;13.260;2023-06-22T06:56:51;101660.00;;;35.80
71463;BMP180;59266;52.608;13.260;2023-06-22T06:59:19;101648.00;;;36.60
71463;BMP180;59266;52.608;13.260;2023-06-22T07:01:46;101637.00;;;36.50
71463;BMP180;59266;52.608;13.260;2023-06-22T07:04:15;101637.00;;;36.40
71463;BMP180;59266;52.608;13.260;2023-06-22T07:06:47;101644.00;;;35.90
71463;BMP180;59266;52.608;13.260;2023-06-22T07:09:16;101634.00;;;36.10
71463;BMP180;59266;52.608;13.260;2023-06-22T07:11:45;101617.00;;;36.70
71463;BMP180;59266;52.608;13.260;2023-06-22T07:14:13;101628.00;;;38.50
71463;BMP180;59266;52.608;13.260;2023-06-22T07:16:40;101635.00;;;35.70
71463;BMP180;59266;52.608;13.260;2023-06-22T07:19:11;101632.00;;;35.00
71463;BMP180;59266;52.608;13.260;2023-06-22T07:21:41;101618.00;;;34.10
71463;BMP180;59266;52.608;13.260;2023-06-22T07:24:09;101612.00;;;34.80
71463;BMP180;59266;52.608;13.260;2023-06-22T07:26:36;101635.00;;;33.30
71463;BMP180;59266;52.608;13.260;2023-06-22T07:29:02;101627.00;;;31.90
71463;BMP180;59266;52.608;13.260;2023-06-22T07:31:29;101628.00;;;32.00
71463;BMP180;59266;52.608;13.260;2023-06-22T07:33:57;101598.00;;;33.80
71463;BMP180;59266;52.608;13.260;2023-06-22T07:36:25;101606.00;;;33.40
71463;BMP180;59266;52.608;13.260;2023-06-22T07:38:53;101619.00;;;34.10
71463;BMP180;59266;52.608;13.260;2023-06-22T07:41:21;101621.00;;;33.40
71463;BMP180;59266;52.608;13.260;2023-06-22T07:43:47;101620.00;;;33.20
71463;BMP180;59266;52.608;13.260;2023-06-22T07:46:19;101620.00;;;32.30
71463;BMP180;59266;52.608;13.260;2023-06-22T07:48:47;101628.00;;;32.40
71463;BMP180;59266;52.608;13.260;2023-06-22T07:51:14;101630.00;;;32.80
71463;BMP180;59266;52.608;13.260;2023-06-22T07:53:44;101625.00;;;32.20
71463;BMP180;59266;52.608;13.260;2023-06-22T07:56:12;101616.00;;;32.00
71463;BMP180;59266;52.608;13.260;2023-06-22T07:58:39;101615.00;;;32.10
71463;BMP180;59266;52.608;13.260;2023-06-22T08:01:07;101608.00;;;32.60
71463;BMP180;59266;52.608;13.260;2023-06-22T08:03:36;101618.00;;;32.50
71463;BMP180;59266;52.608;13.260;2023-06-22T08:06:03;101608.00;;;31.50
71463;BMP180;59266;52.608;13.260;2023-06-22T08:08:30;101606.00;;;32.00
71463;BMP180;59266;52.608;13.260;2023-06-22T08:10:57;101607.00;;;32.70
71463;BMP180;59266;52.608;13.260;2023-06-22T08:13:24;101607.00;;;31.70
71463;BMP180;59266;52.608;13.260;2023-06-22T08:15:51;101601.00;;;31.70
71463;BMP180;59266;52.608;13.260;2023-06-22T08:18:20;101603.00;;;32.70
71463;BMP180;59266;52.608;13.260;2023-06-22T08:20:47;101593.00;;;33.60
71463;BMP180;59266;52.608;13.260;2023-06-22T08:23:14;101604.00;;;36.40
71463;BMP180;59266;52.608;13.260;2023-06-22T08:25:42;101589.00;;;36.60
71463;BMP180;59266;52.608;13.260;2023-06-22T08:28:09;101603.00;;;35.20
71463;BMP180;59266;52.608;13.260;2023-06-22T08:30:36;101594.00;;;37.10
71463;BMP180;59266;52.608;13.260;2023-06-22T08:33:03;101613.00;;;36.30
71463;BMP180;59266;52.608;13.260;2023-06-22T08:35:30;101620.00;;;35.60
71463;BMP180;59266;52.608;13.260;2023-06-22T08:37:57;101616.00;;;34.10
71463;BMP180;59266;52.608;13.260;2023-06-22T08:40:24;101625.00;;;33.00
71463;BMP180;59266;52.608;13.260;2023-06-22T08:42:52;101617.00;;;31.30
71463;BMP180;59266;52.608;13.260;2023-06-22T08:45:22;101623.00;;;31.80
71463;BMP180;59266;52.608;13.260;2023-06-22T08:47:54;101612.00;;;31.20
71463;BMP180;59266;52.608;13.260;2023-06-22T08:50:21;101615.00;;;31.80
71463;BMP180;59266;52.608;13.260;2023-06-22T08:52:48;101608.00;;;30.90
71463;BMP180;59266;52.608;13.260;2023-06-22T08:55:15;101614.00;;;31.90
71463;BMP180;59266;52.608;13.260;2023-06-22T08:57:43;101617.00;;;31.30
71463;BMP180;59266;52.608;13.260;2023-06-22T09:00:11;101615.00;;;31.30
71463;BMP180;59266;52.608;13.260;2023-06-22T09:02:44;101608.00;;;32.10
71463;BMP180;59266;52.608;13.260;2023-06-22T09:05:12;101614.00;;;31.40
71463;BMP180;59266;52.608;13.260;2023-06-22T09:07:39;101604.00;;;31.70
71463;BMP180;59266;52.608;13.260;2023-06-22T09:10:07;101613.00;;;31.70
71463;BMP180;59266;52.608;13.260;2023-06-22T09:12:34;101606.00;;;32.30
71463;BMP180;59266;52.608;13.260;2023-06-22T09:15:06;101597.00;;;33.10
71463;BMP180;59266;52.608;13.260;2023-06-22T09:17:40;101602.00;;;33.20
71463;BMP180;59266;52.608;13.260;2023-06-22T09:20:09;101595.00;;;33.40
71463;BMP180;59266;52.608;13.260;2023-06-22T09:22:37;101600.00;;;33.80
71463;BMP180;59266;52.608;13.260;2023-06-22T09:25:05;101587.00;;;35.50
71463;BMP180;59266;52.608;13.260;2023-06-22T09:27:33;101595.00;;;34.80
71463;BMP180;59266;52.608;13.260;2023-06-22T09:30:00;101585.00;;;34.20
71463;BMP180;59266;52.608;13.260;2023-06-22T09:32:27;101558.00;;;35.60
71463;BMP180;59266;52.608;13.260;2023-06-22T09:34:56;101558.00;;;35.80
71463;BMP180;59266;52.608;13.260;2023-06-22T09:37:24;101548.00;;;36.40
71463;BMP180;59266;52.608;13.260;2023-06-22T09:39:51;101562.00;;;36.90
71463;BMP180;59266;52.608;13.260;2023-06-22T09:42:18;101560.00;;;35.70
71463;BMP180;59266;52.608;13.260;2023-06-22T09:44:45;101563.00;;;35.80
71463;BMP180;59266;52.608;13.260;2023-06-22T09:47:14;101559.00;;;37.90
71463;BMP180;59266;52.608;13.260;2023-06-22T09:49:41;101562.00;;;36.80
71463;BMP180;59266;52.608;13.260;2023-06-22T09:52:15;101550.00;;;37.00
71463;BMP180;59266;52.608;13.260;2023-06-22T09:54:42;101556.00;;;37.00
71463;BMP180;59266;52.608;13.260;2023-06-22T09:57:10;101563.00;;;37.80
71463;BMP180;59266;52.608;13.260;2023-06-22T09:59:39;101569.00;;;38.30
71463;BMP180;59266;52.608;13.260;2023-06-22T10:02:06;101568.00;;;38.10
71463;BMP180;59266;52.608;13.260;2023-06-22T10:04:34;101567.00;;;39.40
71463;BMP180;59266;52.608;13.260;2023-06-22T10:07:02;101563.00;;;39.70
71463;BMP180;59266;52.608;13.260;2023-06-22T10:09:29;101573.00;;;39.90
71463;BMP180;59266;52.608;13.260;2023-06-22T10:11:56;101563.00;;;39.50
71463;BMP180;59266;52.608;13.260;2023-06-22T10:14:23;101575.00;;;39.20
71463;BMP180;59266;52.608;13.260;2023-06-22T10:16:52;101571.00;;;37.40
71463;BMP180;59266;52.608;13.260;2023-06-22T10:19:19;101566.00;;;37.40
71463;BMP180;59266;52.608;13.260;2023-06-22T10:21:47;101580.00;;;37.90
71463;BMP180;59266;52.608;13.260;2023-06-22T10:24:14;101588.00;;;37.40
71463;BMP180;59266;52.608;13.260;2023-06-22T10:26:40;101585.00;;;36.50
71463;BMP180;59266;52.608;13.260;2023-06-22T10:29:07;101581.00;;;36.40
71463;BMP180;59266;52.608;13.260;2023-06-22T10:31:37;101566.00;;;36.70
71463;BMP180;59266;52.608;13.260;2023-06-22T10:34:04;101554.00;;;36.50
71463;BMP180;59266;52.608;13.260;2023-06-22T10:36:31;101549.00;;;37.50
71463;BMP180;59266;52.608;13.260;2023-06-22T10:38:58;101551.00;;;37.30
71463;BMP180;59266;52.608;13.260;2023-06-22T10:41:26;101550.00;;;36.30
71463;BMP180;59266;52.608;13.260;2023-06-22T10:43:55;101551.00;;;38.10
71463;BMP180;59266;52.608;13.260;2023-06-22T10:46:24;101543.00;;;37.80
71463;BMP180;59266;52.608;13.260;2023-06-22T10:48:52;101539.00;;;36.50
71463;BMP180;59266;52.608;13.260;2023-06-22T10:51:22;101539.00;;;37.50
71463;BMP180;59266;52.608;13.260;2023-06-22T10:53:48;101531.00;;;38.00
71463;BMP180;59266;52.608;13.260;2023-06-22T10:56:17;101527.00;;;37.70
71463;BMP180;59266;52.608;13.260;2023-06-22T10:58:45;101548.00;;;38.40
71463;BMP180;59266;52.608;13.260;2023-06-22T11:01:12;101543.00;;;37.10
71463;BMP180;59266;52.608;13.260;2023-06-22T11:03:59;101543.00;;;35.00
71463;BMP180;59266;52.608;13.260;2023-06-22T11:06:27;101514.00;;;35.00
71463;BMP180;59266;52.608;13.260;2023-06-22T11:08:56;101511.00;;;36.70
71463;BMP180;59266;52.608;13.260;2023-06-22T11:11:37;101526.00;;;37.20
71463;BMP180;59266;52.608;13.260;2023-06-22T11:14:04;101542.00;;;37.70
71463;BMP180;59266;52.608;13.260;2023-06-22T11:16:31;101542.00;;;34.30
71463;BMP180;59266;52.608;13.260;2023-06-22T11:19:01;101533.00;;;34.40
71463;BMP180;59266;52.608;13.260;2023-06-22T11:21:29;101534.00;;;35.00
71463;BMP180;59266;52.608;13.260;2023-06-22T11:23:57;101522.00;;;34.30
71463;BMP180;59266;52.608;13.260;2023-06-22T11:26:35;101495.00;;;34.50
71463;BMP180;59266;52.608;13.260;2023-06-22T11:29:02;101485.00;;;35.90
71463;BMP180;59266;52.608;13.260;2023-06-22T11:31:35;101490.00;;;36.20
71463;BMP180;59266;52.608;13.260;2023-06-22T11:34:02;101494.00;;;35.90
71463;BMP180;59266;52.608;13.260;2023-06-22T11:36:29;101526.00;;;35.20
71463;BMP180;59266;52.608;13.260;2023-06-22T11:39:00;101530.00;;;35.00
71463;BMP180;59266;52.608;13.260;2023-06-22T11:41:26;101525.00;;;34.70
71463;BMP180;59266;52.608;13.260;2023-06-22T11:43:53;101515.00;;;34.30
71463;BMP180;59266;52.608;13.260;2023-06-22T11:46:20;101511.00;;;35.50
71463;BMP180;59266;52.608;13.260;2023-06-22T11:48:47;101508.00;;;36.40
71463;BMP180;59266;52.608;13.260;2023-06-22T11:51:15;101501.00;;;37.10
71463;BMP180;59266;52.608;13.260;2023-06-22T11:53:42;101515.00;;;37.30
71463;BMP180;59266;52.608;13.260;2023-06-22T11:56:09;101534.00;;;35.70
71463;BMP180;59266;52.608;13.260;2023-06-22T11:58:39;101518.00;;;35.00
71463;BMP180;59266;52.608;13.260;2023-06-22T12:01:06;101510.00;;;34.90
71463;BMP180;59266;52.608;13.260;2023-06-22T12:03:36;101498.00;;;33.80
71463;BMP180;59266;52.608;13.260;2023-06-22T12:06:05;101497.00;;;33.80
71463;BMP180;59266;52.608;13.260;2023-06-22T12:08:35;101511.00;;;34.10
71463;BMP180;59266;52.608;13.260;2023-06-22T12:11:02;101504.00;;;33.70
71463;BMP180;59266;52.608;13.260;2023-06-22T12:13:28;101515.00;;;35.10
71463;BMP180;59266;52.608;13.260;2023-06-22T12:15:55;101496.00;;;35.70
71463;BMP180;59266;52.608;13.260;2023-06-22T12:18:22;101494.00;;;35.80
71463;BMP180;59266;52.608;13.260;2023-06-22T12:20:49;101485.00;;;34.50
71463;BMP180;59266;52.608;13.260;2023-06-22T12:23:16;101473.00;;;34.60
71463;BMP180;59266;52.608;13.260;2023-06-22T12:25:45;101461.00;;;34.20
71463;BMP180;59266;52.608;13.260;2023-06-22T12:28:15;101468.00;;;34.80
71463;BMP180;59266;52.608;13.260;2023-06-22T12:30:41;101471.00;;;35.40
71463;BMP180;59266;52.608;13.260;2023-06-22T12:33:09;101466.00;;;35.80
71463;BMP180;59266;52.608;13.260;2023-06-22T12:35:36;101453.00;;;35.50
71463;BMP180;59266;52.608;13.260;2023-06-22T12:38:04;101452.00;;;36.10
71463;BMP180;59266;52.608;13.260;2023-06-22T12:40:32;101454.00;;;35.50
71463;BMP180;59266;52.608;13.260;2023-06-22T12:43:01;101455.00;;;35.10
71463;BMP180;59266;52.608;13.260;2023-06-22T12:45:29;101471.00;;;35.40
71463;BMP180;59266;52.608;13.260;2023-06-22T12:47:58;101461.00;;;35.00
71463;BMP180;59266;52.608;13.260;2023-06-22T12:50:26;101463.00;;;34.90
71463;BMP180;59266;52.608;13.260;2023-06-22T12:52:54;101442.00;;;35.30
71463;BMP180;59266;52.608;13.260;2023-06-22T12:55:21;101439.00;;;35.20
71463;BMP180;59266;52.608;13.260;2023-06-22T12:57:48;101445.00;;;34.80
71463;BMP180;59266;52.608;13.260;2023-06-22T13:00:17;101436.00;;;34.80
71463;BMP180;59266;52.608;13.260;2023-06-22T13:02:44;101438.00;;;35.20
71463;BMP180;59266;52.608;13.260;2023-06-22T13:05:10;101437.00;;;34.60
71463;BMP180;59266;52.608;13.260;2023-06-22T13:07:37;101427.00;;;35.00
71463;BMP180;59266;52.608;13.260;2023-06-22T13:10:04;101435.00;;;35.70
71463;BMP180;59266;52.608;13.260;2023-06-22T13:12:31;101429.00;;;34.60
71463;BMP180;59266;52.608;13.260;2023-06-22T13:14:58;101412.00;;;35.20
71463;BMP180;59266;52.608;13.260;2023-06-22T13:17:26;101405.00;;;35.50
71463;BMP180;59266;52.608;13.260;2023-06-22T13:19:54;101411.00;;;35.50
71463;BMP180;59266;52.608;13.260;2023-06-22T13:22:31;101415.00;;;36.00
71463;BMP180;59266;52.608;13.260;2023-06-22T13:24:59;101408.00;;;34.90
71463;BMP180;59266;52.608;13.260;2023-06-22T13:27:26;101397.00;;;35.00
71463;BMP180;59266;52.608;13.260;2023-06-22T13:29:55;101401.00;;;35.10
71463;BMP180;59266;52.608;13.260;2023-06-22T13:36:00;101402.00;;;36.20
71463;BMP180;59266;52.608;13.260;2023-06-22T13:38:29;101400.00;;;35.10
71463;BMP180;59266;52.608;13.260;2023-06-22T13:40:58;101390.00;;;34.90
71463;BMP180;59266;52.608;13.260;2023-06-22T13:43:27;101388.00;;;36.00
71463;BMP180;59266;52.608;13.260;2023-06-22T13:45:54;101383.00;;;35.50
71463;BMP180;59266;52.608;13.260;2023-06-22T13:48:24;101384.00;;;34.50
71463;BMP180;59266;52.608;13.260;2023-06-22T13:50:52;101380.00;;;34.10
71463;BMP180;59266;52.608;13.260;2023-06-22T13:53:19;101374.00;;;34.10
71463;BMP180;59266;52.608;13.260;2023-06-22T13:55:50;101375.00;;;34.60
71463;BMP180;59266;52.608;13.260;2023-06-22T13:58:17;101367.00;;;33.90